createdAt,value
2022-11-27T00:00:30.303Z,1.60
2022-11-27T00:03:02.176Z,1.60
2022-11-27T00:05:34.124Z,1.70
2022-11-27T00:08:05.907Z,1.70
2022-11-27T00:10:37.711Z,1.60
2022-11-27T00:13:09.378Z,1.50
2022-11-27T00:15:41.219Z,1.40
2022-11-27T00:18:13.215Z,1.30
2022-11-27T00:20:44.937Z,1.20
2022-11-27T00:23:16.660Z,1.20
2022-11-27T00:25:52.451Z,1.10
2022-11-27T00:28:24.169Z,1.10
2022-11-27T00:31:05.888Z,1.00
2022-11-27T00:33:37.725Z,1.00
2022-11-27T00:36:10.337Z,1.00
2022-11-27T00:38:42.373Z,0.90
2022-11-27T00:41:21.526Z,0.90
2022-11-27T00:43:54.128Z,0.90
2022-11-27T00:46:29.473Z,0.90
2022-11-27T00:49:03.730Z,0.90
2022-11-27T00:51:35.960Z,0.90
2022-11-27T00:54:08.314Z,0.90
2022-11-27T00:56:40.476Z,0.80
2022-11-27T00:59:12.232Z,0.80
2022-11-27T01:01:44.616Z,0.80
2022-11-27T01:04:17.079Z,0.80
2022-11-27T01:06:48.852Z,0.80
2022-11-27T01:09:20.584Z,0.70
2022-11-27T01:11:52.314Z,0.70
2022-11-27T01:14:23.991Z,0.70
2022-11-27T01:16:55.777Z,0.70
2022-11-27T01:19:27.473Z,0.60
2022-11-27T01:21:59.147Z,0.60
2022-11-27T01:24:30.886Z,0.60
2022-11-27T01:27:02.558Z,0.60
2022-11-27T01:29:34.265Z,0.60
2022-11-27T01:32:06.040Z,0.60
2022-11-27T01:34:38.327Z,0.60
2022-11-27T01:37:10.272Z,0.60
2022-11-27T01:39:41.937Z,0.60
2022-11-27T01:42:13.715Z,0.50
2022-11-27T01:44:51.905Z,0.50
2022-11-27T01:47:46.537Z,0.50
2022-11-27T01:50:33.324Z,0.50
2022-11-27T01:53:19.269Z,0.50
2022-11-27T01:55:58.543Z,0.50
2022-11-27T01:58:31.414Z,0.50
2022-11-27T02:01:04.644Z,0.60
2022-11-27T02:03:36.797Z,0.50
2022-11-27T02:06:12.481Z,0.50
2022-11-27T02:08:44.517Z,0.60
2022-11-27T02:11:28.374Z,0.60
2022-11-27T02:14:12.564Z,0.60
2022-11-27T02:17:02.632Z,0.70
2022-11-27T02:20:11.971Z,0.70
2022-11-27T02:23:12.403Z,0.70
2022-11-27T02:26:09.430Z,0.70
2022-11-27T02:28:59.711Z,0.70
2022-11-27T02:31:38.223Z,0.80
2022-11-27T02:34:29.244Z,0.70
2022-11-27T02:37:05.518Z,0.70
2022-11-27T02:39:53.061Z,0.60
2022-11-27T02:42:29.000Z,0.60
2022-11-27T02:45:09.632Z,0.60
2022-11-27T02:47:44.786Z,0.50
2022-11-27T02:50:20.787Z,0.50
2022-11-27T02:52:57.751Z,0.60
2022-11-27T02:55:33.938Z,0.60
2022-11-27T02:58:12.601Z,0.60
2022-11-27T03:00:46.427Z,0.60
2022-11-27T03:03:22.393Z,0.50
2022-11-27T03:05:59.507Z,0.40
2022-11-27T03:08:41.974Z,0.40
2022-11-27T03:11:16.061Z,0.40
2022-11-27T03:13:53.733Z,0.30
2022-11-27T03:17:00.354Z,0.30
2022-11-27T03:19:56.271Z,0.30
2022-11-27T03:22:28.312Z,0.30
2022-11-27T03:25:00.191Z,0.30
2022-11-27T03:27:44.567Z,0.30
2022-11-27T03:30:16.762Z,0.30
2022-11-27T03:32:48.558Z,0.30
2022-11-27T03:35:23.652Z,0.30
2022-11-27T03:37:56.318Z,0.30
2022-11-27T03:40:35.212Z,0.40
2022-11-27T03:43:24.247Z,0.40
2022-11-27T03:46:06.730Z,0.30
2022-11-27T03:48:48.858Z,0.30
2022-11-27T03:51:41.571Z,0.30
2022-11-27T03:54:47.354Z,0.20
2022-11-27T03:57:40.786Z,0.20
2022-11-27T04:00:13.117Z,0.20
2022-11-27T04:02:51.245Z,0.20
2022-11-27T04:05:23.122Z,0.20
2022-11-27T04:07:54.870Z,0.20
2022-11-27T04:10:26.588Z,0.20
2022-11-27T04:12:58.347Z,0.20
2022-11-27T04:15:30.030Z,0.20
2022-11-27T04:18:01.785Z,0.20
2022-11-27T04:20:33.873Z,0.20
2022-11-27T04:23:05.821Z,0.20
2022-11-27T04:25:37.586Z,0.20
2022-11-27T04:28:09.418Z,0.20
2022-11-27T04:30:41.117Z,0.20
2022-11-27T04:33:12.829Z,0.20
2022-11-27T04:35:44.604Z,0.20
2022-11-27T04:38:16.475Z,0.10
2022-11-27T04:40:48.431Z,0.10
2022-11-27T04:43:20.630Z,0.10
2022-11-27T04:45:52.401Z,0.10
2022-11-27T04:48:24.061Z,0.20
2022-11-27T04:50:56.031Z,0.20
2022-11-27T04:53:27.942Z,0.20
2022-11-27T04:56:00.035Z,0.10
2022-11-27T04:58:31.793Z,0.10
2022-11-27T05:01:03.584Z,0.10
2022-11-27T05:03:36.072Z,0.10
2022-11-27T05:06:07.831Z,0.10
2022-11-27T05:08:39.661Z,0.10
2022-11-27T05:11:13.897Z,0.10
2022-11-27T05:13:45.609Z,0.00
2022-11-27T05:16:17.396Z,0.10
2022-11-27T05:18:49.219Z,0.10
2022-11-27T05:21:20.979Z,0.10
2022-11-27T05:23:52.739Z,0.10
2022-11-27T05:26:24.380Z,0.10
2022-11-27T05:28:56.082Z,0.00
2022-11-27T05:31:28.242Z,0.00
2022-11-27T05:34:00.103Z,0.00
2022-11-27T05:36:32.991Z,0.00
2022-11-27T05:39:09.006Z,0.10
2022-11-27T05:41:43.053Z,0.10
2022-11-27T05:44:15.637Z,0.10
2022-11-27T05:46:47.405Z,0.20
2022-11-27T05:49:19.194Z,0.20
2022-11-27T05:51:51.742Z,0.20
2022-11-27T05:54:23.772Z,0.20
2022-11-27T05:56:55.536Z,0.10
2022-11-27T05:59:27.343Z,0.10
2022-11-27T06:01:59.057Z,0.10
2022-11-27T06:04:34.630Z,0.10
2022-11-27T06:07:06.349Z,0.00
2022-11-27T06:09:38.456Z,0.00
2022-11-27T06:12:10.390Z,0.00
2022-11-27T06:14:42.346Z,0.00
2022-11-27T06:17:16.473Z,0.00
2022-11-27T06:19:48.572Z,0.00
2022-11-27T06:22:20.309Z,0.00
2022-11-27T06:24:51.999Z,0.00
2022-11-27T06:27:23.730Z,0.00
2022-11-27T06:29:55.442Z,-0.10
2022-11-27T06:32:27.337Z,-0.10
2022-11-27T06:34:59.021Z,-0.10
2022-11-27T06:37:30.914Z,-0.10
2022-11-27T06:40:03.551Z,-0.10
2022-11-27T06:42:35.227Z,-0.10
2022-11-27T06:45:07.501Z,-0.10
2022-11-27T06:47:39.282Z,-0.10
2022-11-27T06:50:11.254Z,-0.20
2022-11-27T06:52:42.929Z,-0.10
2022-11-27T06:55:14.600Z,-0.10
2022-11-27T06:57:46.253Z,0.00
2022-11-27T07:00:19.136Z,-0.10
2022-11-27T07:02:54.614Z,-0.10
2022-11-27T07:05:26.405Z,-0.10
2022-11-27T07:07:59.102Z,-0.10
2022-11-27T07:10:35.073Z,-0.20
2022-11-27T07:13:06.745Z,-0.10
2022-11-27T07:15:38.520Z,-0.10
2022-11-27T07:18:10.721Z,-0.10
2022-11-27T07:20:42.481Z,0.00
2022-11-27T07:23:14.193Z,0.00
2022-11-27T07:25:45.865Z,0.10
2022-11-27T07:28:19.270Z,0.10
2022-11-27T07:30:55.745Z,0.20
2022-11-27T07:33:28.097Z,0.30
2022-11-27T07:36:03.648Z,0.40
2022-11-27T07:38:35.332Z,0.50
2022-11-27T07:41:07.889Z,0.60
2022-11-27T07:43:40.617Z,0.60
2022-11-27T07:46:21.983Z,0.70
2022-11-27T07:48:53.717Z,0.90
2022-11-27T07:51:25.391Z,1.00
2022-11-27T07:53:57.465Z,1.10
2022-11-27T07:56:30.445Z,1.10
2022-11-27T07:59:02.297Z,1.20
2022-11-27T08:01:34.042Z,1.20
2022-11-27T08:04:05.818Z,1.30
2022-11-27T08:06:37.571Z,1.30
2022-11-27T08:09:09.282Z,1.40
2022-11-27T08:11:41.134Z,1.50
2022-11-27T08:14:13.770Z,1.60
2022-11-27T08:16:45.515Z,1.80
2022-11-27T08:19:17.237Z,1.90
2022-11-27T08:21:49.041Z,2.00
2022-11-27T08:24:20.823Z,2.10
2022-11-27T08:26:52.711Z,2.20
2022-11-27T08:29:29.895Z,2.30
2022-11-27T08:32:05.694Z,2.30
2022-11-27T08:34:37.549Z,2.50
2022-11-27T08:37:09.673Z,2.70
2022-11-27T08:39:41.356Z,3.00
2022-11-27T08:42:13.179Z,3.20
2022-11-27T08:44:44.882Z,3.30
2022-11-27T08:47:16.984Z,3.60
2022-11-27T08:49:48.738Z,3.70
2022-11-27T08:52:21.240Z,3.70
2022-11-27T08:54:57.316Z,3.80
2022-11-27T08:57:29.655Z,3.90
2022-11-27T09:00:01.418Z,4.20
2022-11-27T09:02:34.314Z,4.50
2022-11-27T09:05:06.368Z,4.90
2022-11-27T09:07:38.173Z,5.10
2022-11-27T09:10:10.680Z,5.40
2022-11-27T09:12:44.488Z,5.70
2022-11-27T09:15:16.575Z,5.80
2022-11-27T09:17:48.313Z,5.70
2022-11-27T09:20:20.169Z,5.70
2022-11-27T09:22:51.949Z,5.70
2022-11-27T09:25:23.610Z,5.60
2022-11-27T09:27:55.356Z,5.50
2022-11-27T09:30:27.151Z,5.50
2022-11-27T09:32:58.866Z,5.60
2022-11-27T09:35:30.666Z,5.80
2022-11-27T09:38:02.394Z,6.00
2022-11-27T09:40:34.818Z,6.00
2022-11-27T09:43:09.897Z,6.30
2022-11-27T09:45:55.301Z,6.60
2022-11-27T09:48:37.480Z,7.00
2022-11-27T09:51:34.471Z,7.50
2022-11-27T09:54:20.478Z,7.90
2022-11-27T09:56:55.001Z,8.20
2022-11-27T09:59:36.165Z,8.50
2022-11-27T10:02:28.947Z,9.30
2022-11-27T10:05:20.234Z,10.10
2022-11-27T10:08:03.265Z,10.50
2022-11-27T10:10:50.488Z,11.00
2022-11-27T10:13:45.356Z,11.60
2022-11-27T10:16:44.503Z,11.60
2022-11-27T10:19:39.610Z,11.20
2022-11-27T10:22:37.550Z,10.70
2022-11-27T10:25:21.825Z,11.10
2022-11-27T10:28:24.700Z,11.40
2022-11-27T10:31:04.485Z,11.70
2022-11-27T10:33:43.407Z,12.10
2022-11-27T10:36:27.183Z,12.30
2022-11-27T10:39:01.056Z,12.10
2022-11-27T10:42:17.437Z,12.30
2022-11-27T10:44:59.018Z,11.80
2022-11-27T10:47:33.940Z,10.90
2022-11-27T10:50:17.555Z,10.10
2022-11-27T10:53:03.153Z,9.60
2022-11-27T10:55:44.317Z,9.20
2022-11-27T10:58:41.534Z,8.90
2022-11-27T11:01:18.861Z,8.70
2022-11-27T11:03:51.686Z,8.80
2022-11-27T11:06:26.166Z,9.50
2022-11-27T11:09:14.418Z,10.20
2022-11-27T11:11:46.170Z,10.50
2022-11-27T11:14:22.765Z,10.30
2022-11-27T11:16:55.115Z,9.90
2022-11-27T11:19:39.036Z,9.50
2022-11-27T11:22:16.326Z,9.00
2022-11-27T11:24:50.406Z,8.70
2022-11-27T11:27:32.391Z,8.40
2022-11-27T11:30:07.726Z,8.40
2022-11-27T11:32:40.743Z,8.40
2022-11-27T11:35:30.602Z,8.40
2022-11-27T11:38:15.906Z,8.50
2022-11-27T11:40:59.902Z,8.40
2022-11-27T11:43:37.046Z,8.30
2022-11-27T11:46:22.749Z,8.20
2022-11-27T11:48:56.086Z,8.00
2022-11-27T11:51:54.273Z,7.90
2022-11-27T11:54:39.404Z,7.80
2022-11-27T11:57:40.346Z,7.80
2022-11-27T12:00:16.956Z,7.80
2022-11-27T12:03:15.493Z,7.80
2022-11-27T12:06:11.376Z,7.80
2022-11-27T12:09:04.890Z,7.80
2022-11-27T12:12:19.673Z,7.70
2022-11-27T12:15:21.447Z,7.70
2022-11-27T12:18:00.977Z,7.60
2022-11-27T12:20:51.053Z,7.60
2022-11-27T12:23:36.956Z,7.60
2022-11-27T12:26:34.075Z,7.60
2022-11-27T12:29:39.609Z,7.60
2022-11-27T12:32:18.966Z,7.60
2022-11-27T12:34:59.345Z,7.60
2022-11-27T12:37:46.255Z,7.50
2022-11-27T12:40:36.521Z,7.50
2022-11-27T12:43:24.721Z,7.40
2022-11-27T12:46:17.644Z,7.30
2022-11-27T12:48:59.215Z,7.20
2022-11-27T12:51:47.291Z,7.20
2022-11-27T12:54:29.812Z,7.30
2022-11-27T12:57:10.075Z,7.40
2022-11-27T12:59:50.718Z,7.50
2022-11-27T13:02:31.712Z,7.60
2022-11-27T13:05:22.726Z,7.90
2022-11-27T13:08:01.173Z,8.00
2022-11-27T13:10:41.342Z,8.10
2022-11-27T13:13:29.073Z,8.30
2022-11-27T13:16:05.860Z,8.40
2022-11-27T13:18:41.471Z,8.40
2022-11-27T13:21:23.629Z,8.30
2022-11-27T13:23:55.575Z,8.40
2022-11-27T13:26:33.233Z,8.30
2022-11-27T13:29:27.145Z,8.30
2022-11-27T13:32:04.104Z,8.30
2022-11-27T13:34:44.757Z,8.30
2022-11-27T13:37:27.668Z,8.30
2022-11-27T13:40:21.728Z,8.30
2022-11-27T13:42:56.408Z,8.20
2022-11-27T13:45:31.260Z,8.20
2022-11-27T13:48:18.260Z,8.10
2022-11-27T13:50:50.158Z,8.10
2022-11-27T13:53:34.728Z,8.10
2022-11-27T13:56:07.945Z,8.10
2022-11-27T13:58:41.861Z,8.00
2022-11-27T14:01:18.325Z,8.00
2022-11-27T14:03:50.733Z,7.90
2022-11-27T14:06:31.594Z,7.90
2022-11-27T14:09:06.040Z,7.90
2022-11-27T14:11:45.739Z,7.90
2022-11-27T14:14:21.898Z,7.90
2022-11-27T14:17:04.846Z,7.80
2022-11-27T14:19:44.386Z,7.80
2022-11-27T14:23:10.422Z,7.80
2022-11-27T14:25:38.604Z,7.80
2022-11-27T14:28:21.698Z,7.80
2022-11-27T14:30:55.351Z,7.80
2022-11-27T14:33:31.376Z,7.80
2022-11-27T14:36:06.040Z,7.70
2022-11-27T14:38:37.723Z,7.90
2022-11-27T14:41:15.118Z,7.90
2022-11-27T14:43:46.993Z,8.00
2022-11-27T14:46:21.882Z,7.90
2022-11-27T14:48:56.013Z,7.80
2022-11-27T14:51:28.882Z,7.80
2022-11-27T14:54:09.594Z,7.70
2022-11-27T14:56:44.162Z,7.60
2022-11-27T14:59:18.868Z,7.60
2022-11-27T15:02:12.612Z,7.60
2022-11-27T15:04:45.832Z,7.50
2022-11-27T15:07:21.741Z,7.50
2022-11-27T15:09:56.493Z,7.40
2022-11-27T15:12:35.925Z,7.40
2022-11-27T15:15:18.072Z,7.30
2022-11-27T15:17:54.246Z,7.20
2022-11-27T15:20:32.210Z,7.00
2022-11-27T15:23:14.585Z,7.00
2022-11-27T15:25:50.330Z,7.10
2022-11-27T15:28:50.753Z,7.10
2022-11-27T15:31:25.348Z,7.00
2022-11-27T15:34:06.325Z,6.90
2022-11-27T15:36:47.531Z,6.80
2022-11-27T15:39:36.105Z,6.70
2022-11-27T15:42:17.503Z,6.60
2022-11-27T15:44:53.770Z,6.50
2022-11-27T15:47:37.250Z,6.50
2022-11-27T15:50:15.429Z,6.40
2022-11-27T15:52:48.310Z,6.30
2022-11-27T15:55:20.191Z,6.30
2022-11-27T15:57:51.952Z,6.30
2022-11-27T16:00:23.763Z,6.20
2022-11-27T16:02:55.590Z,6.20
2022-11-27T16:05:27.333Z,6.10
2022-11-27T16:07:59.240Z,6.10
2022-11-27T16:10:31.049Z,6.10
2022-11-27T16:13:02.798Z,6.20
2022-11-27T16:15:34.809Z,6.40
2022-11-27T16:18:07.221Z,6.50
2022-11-27T16:20:39.034Z,6.50
2022-11-27T16:23:10.768Z,6.50
2022-11-27T16:25:42.559Z,6.40
2022-11-27T16:28:14.330Z,6.40
2022-11-27T16:30:46.041Z,6.30
2022-11-27T16:33:19.815Z,6.40
2022-11-27T16:35:52.074Z,6.40
2022-11-27T16:38:23.819Z,6.40
2022-11-27T16:41:01.064Z,6.40
2022-11-27T16:43:41.029Z,6.40
2022-11-27T16:46:15.495Z,6.50
2022-11-27T16:48:48.711Z,6.50
2022-11-27T16:51:29.005Z,6.50
2022-11-27T16:54:04.114Z,6.50
2022-11-27T16:56:38.348Z,6.40
2022-11-27T16:59:12.759Z,6.40
2022-11-27T17:01:44.787Z,6.40
2022-11-27T17:04:19.494Z,6.40
2022-11-27T17:06:51.405Z,6.30
2022-11-27T17:09:25.174Z,6.30
2022-11-27T17:11:57.031Z,6.30
2022-11-27T17:14:28.836Z,6.30
2022-11-27T17:17:00.671Z,6.30
2022-11-27T17:19:32.476Z,6.30
2022-11-27T17:22:04.241Z,6.30
2022-11-27T17:24:36.158Z,6.20
2022-11-27T17:27:07.898Z,6.20
2022-11-27T17:29:39.806Z,6.20
2022-11-27T17:32:12.949Z,6.20
2022-11-27T17:34:45.479Z,6.20
2022-11-27T17:37:17.232Z,6.20
2022-11-27T17:39:48.987Z,6.10
2022-11-27T17:42:22.792Z,6.00
2022-11-27T17:44:56.144Z,6.00
2022-11-27T17:47:27.922Z,5.90
2022-11-27T17:50:00.073Z,5.90
2022-11-27T17:52:31.891Z,5.90
2022-11-27T17:55:04.296Z,5.80
2022-11-27T17:57:36.056Z,5.80
2022-11-27T18:00:08.689Z,5.80
2022-11-27T18:02:40.522Z,5.70
2022-11-27T18:05:12.354Z,5.70
2022-11-27T18:07:44.216Z,5.60
2022-11-27T18:10:18.472Z,5.60
2022-11-27T18:12:50.152Z,5.60
2022-11-27T18:15:21.783Z,5.60
2022-11-27T18:17:54.033Z,5.60
2022-11-27T18:20:26.473Z,5.60
2022-11-27T18:22:58.463Z,5.60
2022-11-27T18:25:30.466Z,5.60
2022-11-27T18:28:03.149Z,5.60
2022-11-27T18:30:35.030Z,5.70
2022-11-27T18:33:06.724Z,5.70
2022-11-27T18:35:42.486Z,5.70
2022-11-27T18:38:14.287Z,5.70
2022-11-27T18:40:46.290Z,5.60
2022-11-27T18:43:17.974Z,5.70
2022-11-27T18:45:49.937Z,5.60
2022-11-27T18:48:21.682Z,5.60
2022-11-27T18:51:00.658Z,5.60
2022-11-27T18:53:32.920Z,5.60
2022-11-27T18:56:13.285Z,5.50
2022-11-27T18:58:46.605Z,5.50
2022-11-27T19:01:22.060Z,5.50
2022-11-27T19:03:54.638Z,5.50
2022-11-27T19:06:26.742Z,5.50
2022-11-27T19:08:59.372Z,5.40
2022-11-27T19:11:32.689Z,5.40
2022-11-27T19:14:05.901Z,5.40
2022-11-27T19:16:43.714Z,5.40
2022-11-27T19:22:10.960Z,5.50
2022-11-27T19:24:42.807Z,5.50
2022-11-27T19:27:14.510Z,5.50
2022-11-27T19:29:46.313Z,5.40
2022-11-27T19:32:18.128Z,5.40
2022-11-27T19:34:50.833Z,5.30
2022-11-27T19:37:34.153Z,5.30
2022-11-27T19:40:08.390Z,5.30
2022-11-27T19:42:40.166Z,5.20
2022-11-27T19:45:12.193Z,5.20
2022-11-27T19:47:43.869Z,5.20
2022-11-27T19:50:15.574Z,5.10
2022-11-27T19:52:47.315Z,5.10
2022-11-27T19:55:19.190Z,5.00
2022-11-27T19:57:50.857Z,5.00
2022-11-27T20:00:22.639Z,5.00
2022-11-27T20:02:54.372Z,5.00
2022-11-27T20:05:26.170Z,4.90
2022-11-27T20:07:59.494Z,4.90
2022-11-27T20:10:31.260Z,4.90
2022-11-27T20:13:03.181Z,4.90
2022-11-27T20:15:35.225Z,4.90
2022-11-27T20:18:06.970Z,4.90
2022-11-27T20:20:38.874Z,4.90
2022-11-27T20:23:10.650Z,4.90
2022-11-27T20:25:42.909Z,4.90
2022-11-27T20:28:14.705Z,4.90
2022-11-27T20:30:46.445Z,4.90
2022-11-27T20:33:19.643Z,4.90
2022-11-27T20:35:51.553Z,4.90
2022-11-27T20:38:23.665Z,4.90
2022-11-27T20:40:55.543Z,4.90
2022-11-27T20:43:27.218Z,4.90
2022-11-27T20:46:01.106Z,4.90
2022-11-27T20:48:33.052Z,4.90
2022-11-27T20:51:10.441Z,4.90
2022-11-27T20:53:43.761Z,4.90
2022-11-27T20:56:18.821Z,4.90
2022-11-27T20:58:50.630Z,4.90
2022-11-27T21:01:31.194Z,4.90
2022-11-27T21:04:10.309Z,4.90
2022-11-27T21:06:44.045Z,5.00
2022-11-27T21:09:16.528Z,4.90
2022-11-27T21:11:48.384Z,4.90
2022-11-27T21:14:20.304Z,4.90
2022-11-27T21:16:52.179Z,4.90
2022-11-27T21:19:25.950Z,4.90
2022-11-27T21:21:57.730Z,4.90
2022-11-27T21:24:29.824Z,4.90
2022-11-27T21:27:01.719Z,4.90
2022-11-27T21:29:33.644Z,4.80
2022-11-27T21:32:05.441Z,4.80
2022-11-27T21:34:39.358Z,4.80
2022-11-27T21:37:11.207Z,4.80
2022-11-27T21:39:44.638Z,4.80
2022-11-27T21:42:16.327Z,4.70
2022-11-27T21:44:48.220Z,4.70
2022-11-27T21:47:19.964Z,4.70
2022-11-27T21:49:51.734Z,4.60
2022-11-27T21:52:23.568Z,4.60
2022-11-27T21:54:55.349Z,4.60
2022-11-27T21:57:27.159Z,4.60
2022-11-27T21:59:58.816Z,4.60
2022-11-27T22:02:30.602Z,4.60
2022-11-27T22:05:02.378Z,4.60
2022-11-27T22:07:35.151Z,4.60
2022-11-27T22:10:10.533Z,4.60
2022-11-27T22:12:42.260Z,4.60
2022-11-27T22:15:14.046Z,4.60
2022-11-27T22:17:45.831Z,4.60
2022-11-27T22:20:17.633Z,4.60
2022-11-27T22:22:49.353Z,4.60
2022-11-27T22:25:21.033Z,4.60
2022-11-27T22:27:52.907Z,4.60
2022-11-27T22:30:25.771Z,4.70
2022-11-27T22:32:57.551Z,4.70
2022-11-27T22:35:29.388Z,4.70
2022-11-27T22:38:01.063Z,4.80
2022-11-27T22:40:32.748Z,4.80
2022-11-27T22:43:04.582Z,4.90
2022-11-27T22:45:39.771Z,4.90
2022-11-27T22:48:11.609Z,4.90
2022-11-27T22:50:43.332Z,4.90
2022-11-27T22:53:15.016Z,4.90
2022-11-27T22:55:46.771Z,4.80
2022-11-27T22:58:19.571Z,4.80
2022-11-27T23:00:58.124Z,4.80
2022-11-27T23:03:31.334Z,4.80
2022-11-27T23:06:04.038Z,4.80
2022-11-27T23:08:35.760Z,4.80
2022-11-27T23:11:09.181Z,4.80
2022-11-27T23:13:46.320Z,4.90
2022-11-27T23:16:21.886Z,4.90
2022-11-27T23:18:53.676Z,4.80
2022-11-27T23:21:26.697Z,4.90
2022-11-27T23:23:58.567Z,4.90
2022-11-27T23:26:30.337Z,4.90
2022-11-27T23:29:02.823Z,4.90
2022-11-27T23:31:36.132Z,4.80
2022-11-27T23:34:13.397Z,4.80
2022-11-27T23:36:45.243Z,4.80
2022-11-27T23:39:17.070Z,4.70
2022-11-27T23:41:49.630Z,4.70
2022-11-27T23:44:21.677Z,4.70
2022-11-27T23:46:53.354Z,4.70
2022-11-27T23:49:25.010Z,4.70
2022-11-27T23:51:58.251Z,4.70
2022-11-27T23:54:30.005Z,4.70
2022-11-27T23:57:01.737Z,4.70
2022-11-27T23:59:33.451Z,4.70
